sensor_id;sensor_type;location;lat;lon;timestamp;P1;durP1;ratioP1;P2;durP2;ratioP2
37449;SDS011;23309;52.582;13.406;2022-11-23T00:01:09;32.97;;;18.23;;
37449;SDS011;23309;52.582;13.406;2022-11-23T00:03:43;37.13;;;19.93;;
37449;SDS011;23309;52.582;13.406;2022-11-23T00:06:11;35.70;;;18.77;;
37449;SDS011;23309;52.582;13.406;2022-11-23T00:08:41;30.73;;;17.87;;
37449;SDS011;23309;52.582;13.406;2022-11-23T00:11:15;35.60;;;20.07;;
37449;SDS011;23309;52.582;13.406;2022-11-23T00:13:42;31.97;;;18.23;;
37449;SDS011;23309;52.582;13.406;2022-11-23T00:16:11;35.97;;;19.27;;
37449;SDS011;23309;52.582;13.406;2022-11-23T00:18:39;34.10;;;19.10;;
37449;SDS011;23309;52.582;13.406;2022-11-23T00:21:09;33.63;;;18.80;;
37449;SDS011;23309;52.582;13.406;2022-11-23T00:23:37;32.20;;;18.07;;
37449;SDS011;23309;52.582;13.406;2022-11-23T00:26:08;38.67;;;20.40;;
37449;SDS011;23309;52.582;13.406;2022-11-23T00:28:35;36.67;;;19.73;;
37449;SDS011;23309;52.582;13.406;2022-11-23T00:31:01;33.67;;;18.47;;
37449;SDS011;23309;52.582;13.406;2022-11-23T00:33:27;36.63;;;20.40;;
37449;SDS011;23309;52.582;13.406;2022-11-23T00:36:03;32.90;;;17.43;;
37449;SDS011;23309;52.582;13.406;2022-11-23T00:38:32;39.17;;;21.00;;
37449;SDS011;23309;52.582;13.406;2022-11-23T00:40:59;43.63;;;23.27;;
37449;SDS011;23309;52.582;13.406;2022-11-23T00:43:29;38.30;;;22.37;;
37449;SDS011;23309;52.582;13.406;2022-11-23T00:46:06;41.43;;;24.20;;
37449;SDS011;23309;52.582;13.406;2022-11-23T00:48:36;43.40;;;24.93;;
37449;SDS011;23309;52.582;13.406;2022-11-23T00:51:11;40.63;;;22.93;;
37449;SDS011;23309;52.582;13.406;2022-11-23T00:53:39;40.90;;;22.57;;
37449;SDS011;23309;52.582;13.406;2022-11-23T00:56:06;40.70;;;22.17;;
37449;SDS011;23309;52.582;13.406;2022-11-23T00:58:33;45.67;;;24.10;;
37449;SDS011;23309;52.582;13.406;2022-11-23T01:01:04;39.60;;;20.77;;
37449;SDS011;23309;52.582;13.406;2022-11-23T01:03:33;38.93;;;21.70;;
37449;SDS011;23309;52.582;13.406;2022-11-23T01:06:02;36.40;;;20.80;;
37449;SDS011;23309;52.582;13.406;2022-11-23T01:08:33;39.90;;;22.90;;
37449;SDS011;23309;52.582;13.406;2022-11-23T01:11:01;36.70;;;21.20;;
37449;SDS011;23309;52.582;13.406;2022-11-23T01:13:29;41.57;;;22.53;;
37449;SDS011;23309;52.582;13.406;2022-11-23T01:15:56;36.60;;;19.77;;
37449;SDS011;23309;52.582;13.406;2022-11-23T01:18:23;33.40;;;19.60;;
37449;SDS011;23309;52.582;13.406;2022-11-23T01:20:50;37.57;;;20.30;;
37449;SDS011;23309;52.582;13.406;2022-11-23T01:23:16;34.00;;;19.30;;
37449;SDS011;23309;52.582;13.406;2022-11-23T01:25:45;35.80;;;20.60;;
37449;SDS011;23309;52.582;13.406;2022-11-23T01:28:12;33.97;;;19.37;;
37449;SDS011;23309;52.582;13.406;2022-11-23T01:30:38;34.60;;;19.80;;
37449;SDS011;23309;52.582;13.406;2022-11-23T01:33:04;34.43;;;18.30;;
37449;SDS011;23309;52.582;13.406;2022-11-23T01:35:30;33.50;;;19.50;;
37449;SDS011;23309;52.582;13.406;2022-11-23T01:37:56;31.03;;;18.37;;
37449;SDS011;23309;52.582;13.406;2022-11-23T01:40:22;32.83;;;19.43;;
37449;SDS011;23309;52.582;13.406;2022-11-23T01:42:54;32.97;;;18.40;;
37449;SDS011;23309;52.582;13.406;2022-11-23T01:48:10;37.77;;;18.30;;
37449;SDS011;23309;52.582;13.406;2022-11-23T01:50:41;33.90;;;19.10;;
37449;SDS011;23309;52.582;13.406;2022-11-23T01:53:10;34.30;;;18.10;;
37449;SDS011;23309;52.582;13.406;2022-11-23T01:55:37;33.60;;;18.30;;
37449;SDS011;23309;52.582;13.406;2022-11-23T01:58:06;31.60;;;17.37;;
37449;SDS011;23309;52.582;13.406;2022-11-23T02:00:34;33.90;;;18.80;;
37449;SDS011;23309;52.582;13.406;2022-11-23T02:03:01;31.80;;;18.37;;
37449;SDS011;23309;52.582;13.406;2022-11-23T02:05:30;33.97;;;18.53;;
37449;SDS011;23309;52.582;13.406;2022-11-23T02:08:00;32.13;;;18.30;;
37449;SDS011;23309;52.582;13.406;2022-11-23T02:10:28;32.00;;;19.10;;
37449;SDS011;23309;52.582;13.406;2022-11-23T02:12:56;31.70;;;18.23;;
37449;SDS011;23309;52.582;13.406;2022-11-23T02:15:31;30.70;;;18.83;;
37449;SDS011;23309;52.582;13.406;2022-11-23T02:17:58;31.33;;;18.37;;
37449;SDS011;23309;52.582;13.406;2022-11-23T02:20:26;35.30;;;18.23;;
37449;SDS011;23309;52.582;13.406;2022-11-23T02:22:56;33.63;;;19.00;;
37449;SDS011;23309;52.582;13.406;2022-11-23T02:25:37;28.80;;;17.27;;
37449;SDS011;23309;52.582;13.406;2022-11-23T02:28:17;31.30;;;17.57;;
37449;SDS011;23309;52.582;13.406;2022-11-23T02:30:57;29.00;;;17.47;;
37449;SDS011;23309;52.582;13.406;2022-11-23T02:33:24;33.40;;;17.90;;
37449;SDS011;23309;52.582;13.406;2022-11-23T02:35:52;30.30;;;17.67;;
37449;SDS011;23309;52.582;13.406;2022-11-23T02:38:20;28.37;;;16.83;;
37449;SDS011;23309;52.582;13.406;2022-11-23T02:40:50;29.83;;;17.70;;
37449;SDS011;23309;52.582;13.406;2022-11-23T02:43:16;27.37;;;16.27;;
37449;SDS011;23309;52.582;13.406;2022-11-23T02:45:45;31.90;;;17.67;;
37449;SDS011;23309;52.582;13.406;2022-11-23T02:48:15;28.63;;;16.47;;
37449;SDS011;23309;52.582;13.406;2022-11-23T02:50:46;32.60;;;16.87;;
37449;SDS011;23309;52.582;13.406;2022-11-23T02:53:12;33.53;;;17.63;;
37449;SDS011;23309;52.582;13.406;2022-11-23T02:55:39;30.10;;;17.97;;
37449;SDS011;23309;52.582;13.406;2022-11-23T02:58:08;31.03;;;17.87;;
37449;SDS011;23309;52.582;13.406;2022-11-23T03:00:34;26.03;;;16.33;;
37449;SDS011;23309;52.582;13.406;2022-11-23T03:03:01;33.33;;;18.40;;
37449;SDS011;23309;52.582;13.406;2022-11-23T03:05:27;29.03;;;18.10;;
37449;SDS011;23309;52.582;13.406;2022-11-23T03:07:54;34.77;;;17.73;;
37449;SDS011;23309;52.582;13.406;2022-11-23T03:10:20;29.93;;;16.77;;
37449;SDS011;23309;52.582;13.406;2022-11-23T03:12:50;28.13;;;17.07;;
37449;SDS011;23309;52.582;13.406;2022-11-23T03:15:22;26.10;;;16.03;;
37449;SDS011;23309;52.582;13.406;2022-11-23T03:17:49;26.80;;;16.73;;
37449;SDS011;23309;52.582;13.406;2022-11-23T03:20:15;29.27;;;17.03;;
37449;SDS011;23309;52.582;13.406;2022-11-23T03:22:41;30.10;;;17.20;;
37449;SDS011;23309;52.582;13.406;2022-11-23T03:25:09;30.20;;;18.13;;
37449;SDS011;23309;52.582;13.406;2022-11-23T03:27:36;29.40;;;16.90;;
37449;SDS011;23309;52.582;13.406;2022-11-23T03:30:02;28.93;;;16.90;;
37449;SDS011;23309;52.582;13.406;2022-11-23T03:32:37;30.40;;;17.60;;
37449;SDS011;23309;52.582;13.406;2022-11-23T03:35:06;29.63;;;17.97;;
37449;SDS011;23309;52.582;13.406;2022-11-23T03:37:34;30.37;;;17.40;;
37449;SDS011;23309;52.582;13.406;2022-11-23T03:40:00;28.53;;;17.03;;
37449;SDS011;23309;52.582;13.406;2022-11-23T03:42:27;29.67;;;16.63;;
37449;SDS011;23309;52.582;13.406;2022-11-23T03:44:53;29.47;;;16.67;;
37449;SDS011;23309;52.582;13.406;2022-11-23T03:47:19;29.17;;;16.43;;
37449;SDS011;23309;52.582;13.406;2022-11-23T03:49:48;28.70;;;16.87;;
37449;SDS011;23309;52.582;13.406;2022-11-23T03:52:14;39.30;;;17.90;;
37449;SDS011;23309;52.582;13.406;2022-11-23T03:54:42;32.10;;;17.87;;
37449;SDS011;23309;52.582;13.406;2022-11-23T03:57:08;29.67;;;16.80;;
37449;SDS011;23309;52.582;13.406;2022-11-23T03:59:36;26.97;;;16.40;;
37449;SDS011;23309;52.582;13.406;2022-11-23T04:02:02;28.00;;;15.93;;
37449;SDS011;23309;52.582;13.406;2022-11-23T04:04:29;30.87;;;17.80;;
37449;SDS011;23309;52.582;13.406;2022-11-23T04:06:58;24.43;;;16.37;;
37449;SDS011;23309;52.582;13.406;2022-11-23T04:09:26;27.50;;;16.20;;
37449;SDS011;23309;52.582;13.406;2022-11-23T04:11:54;27.37;;;16.37;;
37449;SDS011;23309;52.582;13.406;2022-11-23T04:14:20;28.10;;;16.63;;
37449;SDS011;23309;52.582;13.406;2022-11-23T04:16:49;25.80;;;15.10;;
37449;SDS011;23309;52.582;13.406;2022-11-23T04:19:15;27.03;;;15.90;;
37449;SDS011;23309;52.582;13.406;2022-11-23T04:21:41;29.03;;;16.83;;
37449;SDS011;23309;52.582;13.406;2022-11-23T04:24:10;28.07;;;16.87;;
37449;SDS011;23309;52.582;13.406;2022-11-23T04:26:36;28.07;;;17.13;;
37449;SDS011;23309;52.582;13.406;2022-11-23T04:29:03;26.27;;;16.90;;
37449;SDS011;23309;52.582;13.406;2022-11-23T04:31:30;27.33;;;16.90;;
37449;SDS011;23309;52.582;13.406;2022-11-23T04:33:56;26.40;;;16.37;;
37449;SDS011;23309;52.582;13.406;2022-11-23T04:36:22;30.03;;;17.80;;
37449;SDS011;23309;52.582;13.406;2022-11-23T04:38:48;25.13;;;16.17;;
37449;SDS011;23309;52.582;13.406;2022-11-23T04:41:17;38.30;;;17.53;;
37449;SDS011;23309;52.582;13.406;2022-11-23T04:43:43;28.00;;;15.80;;
37449;SDS011;23309;52.582;13.406;2022-11-23T04:46:12;29.27;;;17.10;;
37449;SDS011;23309;52.582;13.406;2022-11-23T04:48:39;25.90;;;16.13;;
37449;SDS011;23309;52.582;13.406;2022-11-23T04:51:06;25.93;;;15.80;;
37449;SDS011;23309;52.582;13.406;2022-11-23T04:53:33;28.47;;;17.13;;
37449;SDS011;23309;52.582;13.406;2022-11-23T04:55:59;27.33;;;16.00;;
37449;SDS011;23309;52.582;13.406;2022-11-23T04:58:28;33.20;;;18.07;;
37449;SDS011;23309;52.582;13.406;2022-11-23T05:00:55;32.43;;;16.37;;
37449;SDS011;23309;52.582;13.406;2022-11-23T05:03:22;27.80;;;17.00;;
37449;SDS011;23309;52.582;13.406;2022-11-23T05:05:48;28.13;;;15.77;;
37449;SDS011;23309;52.582;13.406;2022-11-23T05:08:16;26.27;;;15.87;;
37449;SDS011;23309;52.582;13.406;2022-11-23T05:10:42;26.90;;;15.80;;
37449;SDS011;23309;52.582;13.406;2022-11-23T05:13:08;27.80;;;16.67;;
37449;SDS011;23309;52.582;13.406;2022-11-23T05:15:37;29.00;;;16.10;;
37449;SDS011;23309;52.582;13.406;2022-11-23T05:18:04;25.90;;;15.57;;
37449;SDS011;23309;52.582;13.406;2022-11-23T05:20:33;24.50;;;15.20;;
37449;SDS011;23309;52.582;13.406;2022-11-23T05:22:59;28.60;;;16.77;;
37449;SDS011;23309;52.582;13.406;2022-11-23T05:25:28;26.40;;;15.60;;
37449;SDS011;23309;52.582;13.406;2022-11-23T05:27:54;24.70;;;15.80;;
37449;SDS011;23309;52.582;13.406;2022-11-23T05:30:21;29.83;;;17.40;;
37449;SDS011;23309;52.582;13.406;2022-11-23T05:32:50;25.03;;;14.97;;
37449;SDS011;23309;52.582;13.406;2022-11-23T05:35:17;25.50;;;15.60;;
37449;SDS011;23309;52.582;13.406;2022-11-23T05:37:43;28.97;;;15.90;;
37449;SDS011;23309;52.582;13.406;2022-11-23T05:40:10;28.67;;;16.00;;
37449;SDS011;23309;52.582;13.406;2022-11-23T05:42:39;25.13;;;15.67;;
37449;SDS011;23309;52.582;13.406;2022-11-23T05:45:06;28.70;;;16.80;;
37449;SDS011;23309;52.582;13.406;2022-11-23T05:47:33;28.30;;;16.37;;
37449;SDS011;23309;52.582;13.406;2022-11-23T05:50:02;29.17;;;16.67;;
37449;SDS011;23309;52.582;13.406;2022-11-23T05:52:31;27.70;;;15.40;;
37449;SDS011;23309;52.582;13.406;2022-11-23T05:54:57;26.33;;;16.67;;
37449;SDS011;23309;52.582;13.406;2022-11-23T05:57:25;30.00;;;16.10;;
37449;SDS011;23309;52.582;13.406;2022-11-23T05:59:54;22.37;;;15.13;;
37449;SDS011;23309;52.582;13.406;2022-11-23T06:02:20;24.27;;;15.73;;
37449;SDS011;23309;52.582;13.406;2022-11-23T06:04:46;28.13;;;16.50;;
37449;SDS011;23309;52.582;13.406;2022-11-23T06:07:15;27.00;;;16.07;;
37449;SDS011;23309;52.582;13.406;2022-11-23T06:09:41;23.00;;;13.93;;
37449;SDS011;23309;52.582;13.406;2022-11-23T06:12:07;25.67;;;15.50;;
37449;SDS011;23309;52.582;13.406;2022-11-23T06:14:33;24.90;;;14.50;;
37449;SDS011;23309;52.582;13.406;2022-11-23T06:16:59;25.30;;;15.57;;
37449;SDS011;23309;52.582;13.406;2022-11-23T06:19:25;29.77;;;16.27;;
37449;SDS011;23309;52.582;13.406;2022-11-23T06:21:51;29.47;;;16.93;;
37449;SDS011;23309;52.582;13.406;2022-11-23T06:24:21;24.80;;;15.30;;
37449;SDS011;23309;52.582;13.406;2022-11-23T06:26:48;26.70;;;14.90;;
37449;SDS011;23309;52.582;13.406;2022-11-23T06:29:14;23.90;;;14.37;;
37449;SDS011;23309;52.582;13.406;2022-11-23T06:31:40;28.20;;;15.30;;
37449;SDS011;23309;52.582;13.406;2022-11-23T06:34:06;24.10;;;15.20;;
37449;SDS011;23309;52.582;13.406;2022-11-23T06:36:32;22.60;;;14.07;;
37449;SDS011;23309;52.582;13.406;2022-11-23T06:38:58;27.07;;;15.73;;
37449;SDS011;23309;52.582;13.406;2022-11-23T06:41:27;25.57;;;14.67;;
37449;SDS011;23309;52.582;13.406;2022-11-23T06:43:53;24.07;;;14.90;;
37449;SDS011;23309;52.582;13.406;2022-11-23T06:46:19;24.80;;;15.60;;
37449;SDS011;23309;52.582;13.406;2022-11-23T06:48:45;24.50;;;15.00;;
37449;SDS011;23309;52.582;13.406;2022-11-23T06:51:12;21.97;;;14.30;;
37449;SDS011;23309;52.582;13.406;2022-11-23T06:53:39;23.47;;;14.27;;
37449;SDS011;23309;52.582;13.406;2022-11-23T06:56:06;24.37;;;14.60;;
37449;SDS011;23309;52.582;13.406;2022-11-23T06:58:35;24.90;;;15.20;;
37449;SDS011;23309;52.582;13.406;2022-11-23T07:01:02;28.97;;;14.10;;
37449;SDS011;23309;52.582;13.406;2022-11-23T07:03:31;25.57;;;15.37;;
37449;SDS011;23309;52.582;13.406;2022-11-23T07:05:57;26.67;;;15.47;;
37449;SDS011;23309;52.582;13.406;2022-11-23T07:08:23;26.87;;;15.90;;
37449;SDS011;23309;52.582;13.406;2022-11-23T07:10:49;24.50;;;15.07;;
37449;SDS011;23309;52.582;13.406;2022-11-23T07:13:16;27.13;;;16.00;;
37449;SDS011;23309;52.582;13.406;2022-11-23T07:15:44;26.63;;;15.20;;
37449;SDS011;23309;52.582;13.406;2022-11-23T07:18:11;25.10;;;15.87;;
37449;SDS011;23309;52.582;13.406;2022-11-23T07:20:37;24.80;;;14.03;;
37449;SDS011;23309;52.582;13.406;2022-11-23T07:23:04;30.10;;;15.17;;
37449;SDS011;23309;52.582;13.406;2022-11-23T07:25:32;24.70;;;13.93;;
37449;SDS011;23309;52.582;13.406;2022-11-23T07:28:01;22.43;;;14.10;;
37449;SDS011;23309;52.582;13.406;2022-11-23T07:30:29;23.73;;;14.67;;
37449;SDS011;23309;52.582;13.406;2022-11-23T07:33:00;21.70;;;13.20;;
37449;SDS011;23309;52.582;13.406;2022-11-23T07:35:28;25.37;;;15.93;;
37449;SDS011;23309;52.582;13.406;2022-11-23T07:37:54;25.60;;;15.03;;
37449;SDS011;23309;52.582;13.406;2022-11-23T07:40:20;22.73;;;14.87;;
37449;SDS011;23309;52.582;13.406;2022-11-23T07:42:46;29.27;;;16.43;;
37449;SDS011;23309;52.582;13.406;2022-11-23T07:45:12;23.80;;;14.33;;
37449;SDS011;23309;52.582;13.406;2022-11-23T07:47:39;24.53;;;14.73;;
37449;SDS011;23309;52.582;13.406;2022-11-23T07:50:08;26.20;;;16.30;;
37449;SDS011;23309;52.582;13.406;2022-11-23T07:52:36;22.87;;;15.40;;
37449;SDS011;23309;52.582;13.406;2022-11-23T07:55:04;26.50;;;15.60;;
37449;SDS011;23309;52.582;13.406;2022-11-23T07:57:31;24.93;;;15.60;;
37449;SDS011;23309;52.582;13.406;2022-11-23T07:59:57;23.67;;;14.93;;
37449;SDS011;23309;52.582;13.406;2022-11-23T08:02:23;24.60;;;14.80;;
37449;SDS011;23309;52.582;13.406;2022-11-23T08:04:50;25.20;;;14.80;;
37449;SDS011;23309;52.582;13.406;2022-11-23T08:07:18;26.83;;;15.70;;
37449;SDS011;23309;52.582;13.406;2022-11-23T08:09:45;26.53;;;16.80;;
37449;SDS011;23309;52.582;13.406;2022-11-23T08:12:11;23.00;;;14.00;;
37449;SDS011;23309;52.582;13.406;2022-11-23T08:14:37;25.43;;;14.90;;
37449;SDS011;23309;52.582;13.406;2022-11-23T08:17:03;22.50;;;14.33;;
37449;SDS011;23309;52.582;13.406;2022-11-23T08:19:29;22.60;;;14.10;;
37449;SDS011;23309;52.582;13.406;2022-11-23T08:21:55;21.70;;;14.00;;
37449;SDS011;23309;52.582;13.406;2022-11-23T08:24:24;22.37;;;14.10;;
37449;SDS011;23309;52.582;13.406;2022-11-23T08:26:50;26.40;;;14.10;;
37449;SDS011;23309;52.582;13.406;2022-11-23T08:29:16;23.30;;;14.70;;
37449;SDS011;23309;52.582;13.406;2022-11-23T08:31:42;22.00;;;14.20;;
37449;SDS011;23309;52.582;13.406;2022-11-23T08:34:08;25.23;;;14.27;;
37449;SDS011;23309;52.582;13.406;2022-11-23T08:36:35;22.27;;;14.93;;
37449;SDS011;23309;52.582;13.406;2022-11-23T08:39:03;22.70;;;14.60;;
37449;SDS011;23309;52.582;13.406;2022-11-23T08:41:32;26.40;;;14.00;;
37449;SDS011;23309;52.582;13.406;2022-11-23T08:43:58;20.47;;;13.20;;
37449;SDS011;23309;52.582;13.406;2022-11-23T08:46:24;20.70;;;13.97;;
37449;SDS011;23309;52.582;13.406;2022-11-23T08:48:50;22.47;;;13.77;;
37449;SDS011;23309;52.582;13.406;2022-11-23T08:51:16;24.97;;;13.37;;
37449;SDS011;23309;52.582;13.406;2022-11-23T08:53:42;21.43;;;14.10;;
37449;SDS011;23309;52.582;13.406;2022-11-23T08:56:08;23.73;;;14.10;;
37449;SDS011;23309;52.582;13.406;2022-11-23T08:58:37;23.40;;;14.40;;
37449;SDS011;23309;52.582;13.406;2022-11-23T09:01:06;20.50;;;13.17;;
37449;SDS011;23309;52.582;13.406;2022-11-23T09:03:33;25.37;;;14.17;;
37449;SDS011;23309;52.582;13.406;2022-11-23T09:05:59;22.37;;;14.30;;
37449;SDS011;23309;52.582;13.406;2022-11-23T09:08:26;20.33;;;12.73;;
37449;SDS011;23309;52.582;13.406;2022-11-23T09:10:53;23.27;;;13.90;;
37449;SDS011;23309;52.582;13.406;2022-11-23T09:13:19;26.37;;;13.57;;
37449;SDS011;23309;52.582;13.406;2022-11-23T09:15:48;24.40;;;14.10;;
37449;SDS011;23309;52.582;13.406;2022-11-23T09:18:17;20.47;;;13.57;;
37449;SDS011;23309;52.582;13.406;2022-11-23T09:20:43;23.00;;;13.87;;
37449;SDS011;23309;52.582;13.406;2022-11-23T09:23:11;22.47;;;13.33;;
37449;SDS011;23309;52.582;13.406;2022-11-23T09:25:38;19.53;;;12.70;;
37449;SDS011;23309;52.582;13.406;2022-11-23T09:28:04;23.00;;;14.27;;
37449;SDS011;23309;52.582;13.406;2022-11-23T09:30:30;20.33;;;12.80;;
37449;SDS011;23309;52.582;13.406;2022-11-23T09:32:59;21.77;;;13.47;;
37449;SDS011;23309;52.582;13.406;2022-11-23T09:35:27;21.80;;;12.60;;
37449;SDS011;23309;52.582;13.406;2022-11-23T09:37:54;21.53;;;13.30;;
37449;SDS011;23309;52.582;13.406;2022-11-23T09:40:21;19.67;;;12.90;;
37449;SDS011;23309;52.582;13.406;2022-11-23T09:42:55;20.23;;;14.10;;
37449;SDS011;23309;52.582;13.406;2022-11-23T09:45:55;19.13;;;13.57;;
37449;SDS011;23309;52.582;13.406;2022-11-23T09:48:37;20.13;;;12.73;;
37449;SDS011;23309;52.582;13.406;2022-11-23T09:51:17;22.90;;;13.77;;
37449;SDS011;23309;52.582;13.406;2022-11-23T09:53:46;18.80;;;12.80;;
37449;SDS011;23309;52.582;13.406;2022-11-23T09:56:16;23.10;;;14.30;;
37449;SDS011;23309;52.582;13.406;2022-11-23T09:58:45;22.90;;;14.30;;
37449;SDS011;23309;52.582;13.406;2022-11-23T10:01:14;25.77;;;15.13;;
37449;SDS011;23309;52.582;13.406;2022-11-23T10:03:43;19.53;;;13.50;;
37449;SDS011;23309;52.582;13.406;2022-11-23T10:06:14;19.17;;;13.50;;
37449;SDS011;23309;52.582;13.406;2022-11-23T10:08:46;23.03;;;13.43;;
37449;SDS011;23309;52.582;13.406;2022-11-23T10:11:30;22.60;;;13.50;;
37449;SDS011;23309;52.582;13.406;2022-11-23T10:14:16;21.50;;;14.60;;
37449;SDS011;23309;52.582;13.406;2022-11-23T10:17:01;20.53;;;13.90;;
37449;SDS011;23309;52.582;13.406;2022-11-23T10:19:40;19.00;;;13.40;;
37449;SDS011;23309;52.582;13.406;2022-11-23T10:22:28;19.77;;;13.50;;
37449;SDS011;23309;52.582;13.406;2022-11-23T10:25:04;23.63;;;13.73;;
37449;SDS011;23309;52.582;13.406;2022-11-23T10:27:50;18.17;;;13.57;;
37449;SDS011;23309;52.582;13.406;2022-11-23T10:30:24;20.50;;;13.40;;
37449;SDS011;23309;52.582;13.406;2022-11-23T10:32:51;18.20;;;13.43;;
37449;SDS011;23309;52.582;13.406;2022-11-23T10:35:27;21.53;;;13.77;;
37449;SDS011;23309;52.582;13.406;2022-11-23T10:38:09;20.47;;;14.70;;
37449;SDS011;23309;52.582;13.406;2022-11-23T10:40:37;20.93;;;13.47;;
37449;SDS011;23309;52.582;13.406;2022-11-23T10:43:10;21.50;;;13.57;;
37449;SDS011;23309;52.582;13.406;2022-11-23T10:45:41;20.30;;;13.73;;
37449;SDS011;23309;52.582;13.406;2022-11-23T10:48:07;20.30;;;14.03;;
37449;SDS011;23309;52.582;13.406;2022-11-23T10:50:36;19.97;;;14.17;;
37449;SDS011;23309;52.582;13.406;2022-11-23T10:53:12;17.60;;;12.23;;
37449;SDS011;23309;52.582;13.406;2022-11-23T10:55:46;16.50;;;12.20;;
37449;SDS011;23309;52.582;13.406;2022-11-23T10:58:22;19.37;;;13.20;;
37449;SDS011;23309;52.582;13.406;2022-11-23T11:00:57;20.20;;;12.83;;
37449;SDS011;23309;52.582;13.406;2022-11-23T11:03:24;20.20;;;11.90;;
37449;SDS011;23309;52.582;13.406;2022-11-23T11:05:53;16.77;;;12.23;;
37449;SDS011;23309;52.582;13.406;2022-11-23T11:08:23;17.97;;;11.70;;
37449;SDS011;23309;52.582;13.406;2022-11-23T11:10:56;19.53;;;12.03;;
37449;SDS011;23309;52.582;13.406;2022-11-23T11:13:26;17.30;;;12.23;;
37449;SDS011;23309;52.582;13.406;2022-11-23T11:15:56;20.27;;;12.23;;
37449;SDS011;23309;52.582;13.406;2022-11-23T11:18:26;15.90;;;11.50;;
37449;SDS011;23309;52.582;13.406;2022-11-23T11:20:59;21.97;;;11.97;;
37449;SDS011;23309;52.582;13.406;2022-11-23T11:23:29;15.73;;;11.00;;
37449;SDS011;23309;52.582;13.406;2022-11-23T11:26:01;17.60;;;11.50;;
37449;SDS011;23309;52.582;13.406;2022-11-23T11:28:35;19.63;;;12.30;;
37449;SDS011;23309;52.582;13.406;2022-11-23T11:31:14;17.33;;;12.47;;
37449;SDS011;23309;52.582;13.406;2022-11-23T11:34:19;19.50;;;12.73;;
37449;SDS011;23309;52.582;13.406;2022-11-23T11:36:56;19.47;;;11.97;;
37449;SDS011;23309;52.582;13.406;2022-11-23T11:39:28;18.90;;;13.37;;
37449;SDS011;23309;52.582;13.406;2022-11-23T11:42:03;19.40;;;13.53;;
37449;SDS011;23309;52.582;13.406;2022-11-23T11:44:37;19.00;;;12.03;;
37449;SDS011;23309;52.582;13.406;2022-11-23T11:47:08;19.27;;;12.37;;
37449;SDS011;23309;52.582;13.406;2022-11-23T11:49:51;18.93;;;13.53;;
37449;SDS011;23309;52.582;13.406;2022-11-23T11:52:26;17.50;;;12.23;;
37449;SDS011;23309;52.582;13.406;2022-11-23T11:55:00;19.47;;;11.40;;
37449;SDS011;23309;52.582;13.406;2022-11-23T11:57:32;17.20;;;11.23;;
37449;SDS011;23309;52.582;13.406;2022-11-23T12:00:06;17.93;;;11.37;;
37449;SDS011;23309;52.582;13.406;2022-11-23T12:02:41;18.20;;;11.80;;
37449;SDS011;23309;52.582;13.406;2022-11-23T12:05:18;15.13;;;10.40;;
37449;SDS011;23309;52.582;13.406;2022-11-23T12:10:37;15.80;;;10.67;;
37449;SDS011;23309;52.582;13.406;2022-11-23T12:13:09;18.17;;;11.70;;
37449;SDS011;23309;52.582;13.406;2022-11-23T12:15:41;18.63;;;11.40;;
37449;SDS011;23309;52.582;13.406;2022-11-23T12:18:15;15.70;;;10.77;;
37449;SDS011;23309;52.582;13.406;2022-11-23T12:21:22;23.13;;;11.10;;
37449;SDS011;23309;52.582;13.406;2022-11-23T12:24:23;16.30;;;11.30;;
37449;SDS011;23309;52.582;13.406;2022-11-23T12:27:06;16.70;;;11.10;;
37449;SDS011;23309;52.582;13.406;2022-11-23T12:29:45;18.70;;;10.97;;
37449;SDS011;23309;52.582;13.406;2022-11-23T12:32:28;19.87;;;10.80;;
37449;SDS011;23309;52.582;13.406;2022-11-23T12:35:20;16.57;;;11.13;;
37449;SDS011;23309;52.582;13.406;2022-11-23T12:38:13;18.53;;;11.13;;
37449;SDS011;23309;52.582;13.406;2022-11-23T12:41:02;18.47;;;11.83;;
37449;SDS011;23309;52.582;13.406;2022-11-23T12:43:49;18.27;;;11.57;;
37449;SDS011;23309;52.582;13.406;2022-11-23T12:46:39;17.60;;;12.40;;
37449;SDS011;23309;52.582;13.406;2022-11-23T12:49:19;16.40;;;11.40;;
37449;SDS011;23309;52.582;13.406;2022-11-23T12:51:59;16.00;;;11.10;;
37449;SDS011;23309;52.582;13.406;2022-11-23T12:54:46;19.77;;;12.07;;
37449;SDS011;23309;52.582;13.406;2022-11-23T12:57:27;16.23;;;11.10;;
37449;SDS011;23309;52.582;13.406;2022-11-23T12:59:59;17.73;;;11.50;;
37449;SDS011;23309;52.582;13.406;2022-11-23T13:09:28;18.27;;;11.70;;
37449;SDS011;23309;52.582;13.406;2022-11-23T13:15:36;20.53;;;11.80;;
37449;SDS011;23309;52.582;13.406;2022-11-23T13:18:25;14.30;;;9.77;;
37449;SDS011;23309;52.582;13.406;2022-11-23T13:21:11;18.63;;;11.30;;
37449;SDS011;23309;52.582;13.406;2022-11-23T13:23:49;16.50;;;10.80;;
37449;SDS011;23309;52.582;13.406;2022-11-23T13:26:16;18.50;;;11.90;;
37449;SDS011;23309;52.582;13.406;2022-11-23T13:28:47;16.47;;;11.23;;
37449;SDS011;23309;52.582;13.406;2022-11-23T13:31:25;15.00;;;10.77;;
37449;SDS011;23309;52.582;13.406;2022-11-23T13:33:54;16.73;;;10.80;;
37449;SDS011;23309;52.582;13.406;2022-11-23T13:36:33;18.03;;;10.93;;
37449;SDS011;23309;52.582;13.406;2022-11-23T13:42:20;17.37;;;11.47;;
37449;SDS011;23309;52.582;13.406;2022-11-23T13:44:51;15.77;;;10.77;;
37449;SDS011;23309;52.582;13.406;2022-11-23T13:50:59;16.20;;;11.00;;
37449;SDS011;23309;52.582;13.406;2022-11-23T13:53:27;18.83;;;11.20;;
37449;SDS011;23309;52.582;13.406;2022-11-23T13:55:57;17.77;;;11.40;;
37449;SDS011;23309;52.582;13.406;2022-11-23T13:58:45;20.83;;;11.30;;
37449;SDS011;23309;52.582;13.406;2022-11-23T14:04:25;17.83;;;11.40;;
37449;SDS011;23309;52.582;13.406;2022-11-23T14:06:53;19.83;;;11.57;;
37449;SDS011;23309;52.582;13.406;2022-11-23T14:09:23;19.70;;;12.00;;
37449;SDS011;23309;52.582;13.406;2022-11-23T14:12:00;19.90;;;11.60;;
37449;SDS011;23309;52.582;13.406;2022-11-23T14:14:46;16.97;;;10.50;;
37449;SDS011;23309;52.582;13.406;2022-11-23T14:17:30;16.10;;;10.60;;
37449;SDS011;23309;52.582;13.406;2022-11-23T14:20:33;19.23;;;12.10;;
37449;SDS011;23309;52.582;13.406;2022-11-23T14:26:27;14.77;;;10.50;;
37449;SDS011;23309;52.582;13.406;2022-11-23T14:29:11;15.60;;;9.90;;
37449;SDS011;23309;52.582;13.406;2022-11-23T14:32:23;20.63;;;10.23;;
37449;SDS011;23309;52.582;13.406;2022-11-23T14:38:00;16.27;;;11.27;;
37449;SDS011;23309;52.582;13.406;2022-11-23T14:40:53;16.70;;;11.63;;
37449;SDS011;23309;52.582;13.406;2022-11-23T14:43:30;26.80;;;11.57;;
37449;SDS011;23309;52.582;13.406;2022-11-23T14:46:00;20.37;;;12.57;;
37449;SDS011;23309;52.582;13.406;2022-11-23T14:48:31;18.23;;;12.93;;
37449;SDS011;23309;52.582;13.406;2022-11-23T14:51:02;19.40;;;13.47;;
37449;SDS011;23309;52.582;13.406;2022-11-23T14:53:31;24.10;;;13.43;;
37449;SDS011;23309;52.582;13.406;2022-11-23T14:56:03;19.63;;;12.80;;
37449;SDS011;23309;52.582;13.406;2022-11-23T14:58:42;21.80;;;12.83;;
37449;SDS011;23309;52.582;13.406;2022-11-23T15:01:09;21.53;;;12.67;;